sensor_id;sensor_type;location;lat;lon;timestamp;P1;durP1;ratioP1;P2;durP2;ratioP2
791;SDS011;379;49.022;12.148;2022-08-21T00:00:06;66.97;;;32.33;;
791;SDS011;379;49.022;12.148;2022-08-21T00:02:35;82.87;;;31.47;;
791;SDS011;379;49.022;12.148;2022-08-21T00:05:02;72.67;;;32.00;;
791;SDS011;379;49.022;12.148;2022-08-21T00:07:30;74.80;;;25.33;;
791;SDS011;379;49.022;12.148;2022-08-21T00:09:57;73.27;;;30.70;;
791;SDS011;379;49.022;12.148;2022-08-21T00:12:24;58.60;;;28.57;;
791;SDS011;379;49.022;12.148;2022-08-21T00:14:53;62.90;;;30.50;;
791;SDS011;379;49.022;12.148;2022-08-21T00:17:20;76.13;;;30.60;;
791;SDS011;379;49.022;12.148;2022-08-21T00:19:47;79.87;;;33.10;;
791;SDS011;379;49.022;12.148;2022-08-21T00:22:14;77.20;;;34.60;;
791;SDS011;379;49.022;12.148;2022-08-21T00:24:42;74.73;;;31.80;;
791;SDS011;379;49.022;12.148;2022-08-21T00:27:09;78.37;;;29.30;;
791;SDS011;379;49.022;12.148;2022-08-21T00:29:36;65.40;;;28.87;;
791;SDS011;379;49.022;12.148;2022-08-21T00:32:04;64.33;;;27.43;;
791;SDS011;379;49.022;12.148;2022-08-21T00:34:32;66.93;;;25.30;;
791;SDS011;379;49.022;12.148;2022-08-21T00:36:59;59.77;;;23.43;;
791;SDS011;379;49.022;12.148;2022-08-21T00:39:26;65.10;;;25.73;;
791;SDS011;379;49.022;12.148;2022-08-21T00:41:52;63.70;;;30.13;;
791;SDS011;379;49.022;12.148;2022-08-21T00:44:19;62.03;;;31.27;;
791;SDS011;379;49.022;12.148;2022-08-21T00:46:46;67.67;;;30.73;;
791;SDS011;379;49.022;12.148;2022-08-21T00:49:14;62.53;;;28.70;;
791;SDS011;379;49.022;12.148;2022-08-21T00:51:44;65.17;;;30.20;;
791;SDS011;379;49.022;12.148;2022-08-21T00:54:13;64.47;;;31.27;;
791;SDS011;379;49.022;12.148;2022-08-21T00:56:41;74.23;;;29.37;;
791;SDS011;379;49.022;12.148;2022-08-21T00:59:08;82.13;;;28.40;;
791;SDS011;379;49.022;12.148;2022-08-21T01:01:36;101.97;;;32.97;;
791;SDS011;379;49.022;12.148;2022-08-21T01:04:03;95.50;;;28.60;;
791;SDS011;379;49.022;12.148;2022-08-21T01:06:31;60.10;;;28.97;;
791;SDS011;379;49.022;12.148;2022-08-21T01:08:58;75.17;;;30.40;;
791;SDS011;379;49.022;12.148;2022-08-21T01:11:24;58.40;;;30.00;;
791;SDS011;379;49.022;12.148;2022-08-21T01:13:51;69.87;;;29.73;;
791;SDS011;379;49.022;12.148;2022-08-21T01:16:20;60.03;;;29.97;;
791;SDS011;379;49.022;12.148;2022-08-21T01:18:48;62.80;;;31.13;;
791;SDS011;379;49.022;12.148;2022-08-21T01:21:18;67.30;;;28.40;;
791;SDS011;379;49.022;12.148;2022-08-21T01:23:47;56.97;;;27.83;;
791;SDS011;379;49.022;12.148;2022-08-21T01:26:16;56.03;;;29.33;;
791;SDS011;379;49.022;12.148;2022-08-21T01:28:47;67.20;;;28.80;;
791;SDS011;379;49.022;12.148;2022-08-21T01:31:19;61.47;;;28.00;;
791;SDS011;379;49.022;12.148;2022-08-21T01:33:49;64.43;;;28.70;;
791;SDS011;379;49.022;12.148;2022-08-21T01:36:18;61.70;;;28.37;;
791;SDS011;379;49.022;12.148;2022-08-21T01:38:45;67.47;;;30.27;;
791;SDS011;379;49.022;12.148;2022-08-21T01:41:12;64.00;;;27.30;;
791;SDS011;379;49.022;12.148;2022-08-21T01:43:40;75.90;;;29.60;;
791;SDS011;379;49.022;12.148;2022-08-21T01:46:07;61.30;;;25.47;;
791;SDS011;379;49.022;12.148;2022-08-21T01:48:34;61.67;;;26.97;;
791;SDS011;379;49.022;12.148;2022-08-21T01:51:01;82.50;;;29.97;;
791;SDS011;379;49.022;12.148;2022-08-21T01:53:30;72.70;;;28.20;;
791;SDS011;379;49.022;12.148;2022-08-21T01:55:59;82.13;;;28.37;;
791;SDS011;379;49.022;12.148;2022-08-21T01:58:25;77.53;;;26.80;;
791;SDS011;379;49.022;12.148;2022-08-21T02:00:52;74.23;;;26.77;;
791;SDS011;379;49.022;12.148;2022-08-21T02:03:19;86.03;;;29.63;;
791;SDS011;379;49.022;12.148;2022-08-21T02:05:46;106.00;;;30.37;;
791;SDS011;379;49.022;12.148;2022-08-21T02:08:13;118.53;;;33.87;;
791;SDS011;379;49.022;12.148;2022-08-21T02:10:41;109.90;;;31.23;;
791;SDS011;379;49.022;12.148;2022-08-21T02:13:08;111.40;;;32.20;;
791;SDS011;379;49.022;12.148;2022-08-21T02:15:34;108.00;;;29.83;;
791;SDS011;379;49.022;12.148;2022-08-21T02:18:02;112.97;;;33.50;;
791;SDS011;379;49.022;12.148;2022-08-21T02:20:32;115.07;;;29.17;;
791;SDS011;379;49.022;12.148;2022-08-21T02:23:00;93.13;;;27.77;;
791;SDS011;379;49.022;12.148;2022-08-21T02:25:28;108.83;;;30.07;;
791;SDS011;379;49.022;12.148;2022-08-21T02:27:57;132.70;;;30.17;;
791;SDS011;379;49.022;12.148;2022-08-21T02:30:27;115.30;;;32.10;;
791;SDS011;379;49.022;12.148;2022-08-21T02:32:56;103.70;;;30.23;;
791;SDS011;379;49.022;12.148;2022-08-21T02:35:24;137.97;;;33.57;;
791;SDS011;379;49.022;12.148;2022-08-21T02:37:52;122.13;;;32.17;;
791;SDS011;379;49.022;12.148;2022-08-21T02:40:22;95.93;;;30.60;;
791;SDS011;379;49.022;12.148;2022-08-21T02:42:51;125.23;;;32.90;;
791;SDS011;379;49.022;12.148;2022-08-21T02:45:20;87.33;;;29.40;;
791;SDS011;379;49.022;12.148;2022-08-21T02:47:47;140.97;;;33.27;;
791;SDS011;379;49.022;12.148;2022-08-21T02:50:17;92.10;;;27.73;;
791;SDS011;379;49.022;12.148;2022-08-21T02:52:45;102.40;;;30.10;;
791;SDS011;379;49.022;12.148;2022-08-21T02:55:12;94.57;;;28.97;;
791;SDS011;379;49.022;12.148;2022-08-21T02:57:39;75.13;;;26.10;;
791;SDS011;379;49.022;12.148;2022-08-21T03:00:07;64.90;;;25.37;;
791;SDS011;379;49.022;12.148;2022-08-21T03:02:37;57.93;;;23.77;;
791;SDS011;379;49.022;12.148;2022-08-21T03:05:04;57.23;;;22.43;;
791;SDS011;379;49.022;12.148;2022-08-21T03:07:31;46.27;;;21.63;;
791;SDS011;379;49.022;12.148;2022-08-21T03:09:58;81.07;;;25.20;;
791;SDS011;379;49.022;12.148;2022-08-21T03:12:25;66.43;;;24.70;;
791;SDS011;379;49.022;12.148;2022-08-21T03:14:52;79.07;;;25.07;;
791;SDS011;379;49.022;12.148;2022-08-21T03:17:19;92.20;;;26.07;;
791;SDS011;379;49.022;12.148;2022-08-21T03:19:47;85.63;;;25.60;;
791;SDS011;379;49.022;12.148;2022-08-21T03:22:13;59.40;;;24.13;;
791;SDS011;379;49.022;12.148;2022-08-21T03:24:40;85.23;;;25.47;;
791;SDS011;379;49.022;12.148;2022-08-21T03:27:07;91.67;;;24.53;;
791;SDS011;379;49.022;12.148;2022-08-21T03:29:34;101.13;;;26.33;;
791;SDS011;379;49.022;12.148;2022-08-21T03:32:01;54.40;;;21.77;;
791;SDS011;379;49.022;12.148;2022-08-21T03:34:28;57.37;;;22.77;;
791;SDS011;379;49.022;12.148;2022-08-21T03:36:56;64.17;;;22.77;;
791;SDS011;379;49.022;12.148;2022-08-21T03:39:23;43.07;;;21.43;;
791;SDS011;379;49.022;12.148;2022-08-21T03:41:50;62.30;;;22.87;;
791;SDS011;379;49.022;12.148;2022-08-21T03:44:17;56.73;;;22.53;;
791;SDS011;379;49.022;12.148;2022-08-21T03:46:44;49.00;;;21.27;;
791;SDS011;379;49.022;12.148;2022-08-21T03:49:11;69.97;;;22.23;;
791;SDS011;379;49.022;12.148;2022-08-21T03:51:38;62.67;;;20.57;;
791;SDS011;379;49.022;12.148;2022-08-21T03:54:06;89.53;;;24.47;;
791;SDS011;379;49.022;12.148;2022-08-21T03:56:33;165.63;;;38.43;;
791;SDS011;379;49.022;12.148;2022-08-21T03:58:59;54.50;;;20.37;;
791;SDS011;379;49.022;12.148;2022-08-21T04:01:27;50.87;;;20.17;;
791;SDS011;379;49.022;12.148;2022-08-21T04:03:54;57.37;;;17.60;;
791;SDS011;379;49.022;12.148;2022-08-21T04:06:21;56.67;;;18.63;;
791;SDS011;379;49.022;12.148;2022-08-21T04:08:48;25.67;;;11.83;;
791;SDS011;379;49.022;12.148;2022-08-21T04:11:16;26.90;;;9.70;;
791;SDS011;379;49.022;12.148;2022-08-21T04:13:43;11.47;;;6.10;;
791;SDS011;379;49.022;12.148;2022-08-21T04:16:09;9.70;;;6.87;;
791;SDS011;379;49.022;12.148;2022-08-21T04:18:36;12.07;;;8.20;;
791;SDS011;379;49.022;12.148;2022-08-21T04:21:03;10.40;;;6.10;;
791;SDS011;379;49.022;12.148;2022-08-21T04:23:31;6.73;;;5.90;;
791;SDS011;379;49.022;12.148;2022-08-21T04:25:59;9.20;;;6.97;;
791;SDS011;379;49.022;12.148;2022-08-21T04:28:27;10.17;;;6.50;;
791;SDS011;379;49.022;12.148;2022-08-21T04:30:54;8.50;;;5.20;;
791;SDS011;379;49.022;12.148;2022-08-21T04:33:21;10.73;;;6.40;;
791;SDS011;379;49.022;12.148;2022-08-21T04:35:49;11.80;;;6.67;;
791;SDS011;379;49.022;12.148;2022-08-21T04:38:16;7.50;;;6.00;;
791;SDS011;379;49.022;12.148;2022-08-21T04:40:43;5.53;;;4.90;;
791;SDS011;379;49.022;12.148;2022-08-21T04:43:10;9.40;;;6.37;;
791;SDS011;379;49.022;12.148;2022-08-21T04:45:39;6.77;;;5.60;;
791;SDS011;379;49.022;12.148;2022-08-21T04:48:08;10.03;;;6.37;;
791;SDS011;379;49.022;12.148;2022-08-21T04:50:37;6.93;;;5.77;;
791;SDS011;379;49.022;12.148;2022-08-21T04:53:08;9.50;;;5.50;;
791;SDS011;379;49.022;12.148;2022-08-21T04:55:46;7.90;;;5.43;;
791;SDS011;379;49.022;12.148;2022-08-21T04:58:15;7.90;;;5.90;;
791;SDS011;379;49.022;12.148;2022-08-21T05:00:46;4.83;;;3.77;;
791;SDS011;379;49.022;12.148;2022-08-21T05:03:14;6.50;;;5.07;;
791;SDS011;379;49.022;12.148;2022-08-21T05:05:43;6.20;;;4.60;;
791;SDS011;379;49.022;12.148;2022-08-21T05:08:11;6.80;;;5.83;;
791;SDS011;379;49.022;12.148;2022-08-21T05:10:40;6.73;;;5.30;;
791;SDS011;379;49.022;12.148;2022-08-21T05:13:08;4.23;;;3.50;;
791;SDS011;379;49.022;12.148;2022-08-21T05:15:35;6.97;;;5.20;;
791;SDS011;379;49.022;12.148;2022-08-21T05:18:03;10.53;;;5.37;;
791;SDS011;379;49.022;12.148;2022-08-21T05:20:31;9.70;;;5.77;;
791;SDS011;379;49.022;12.148;2022-08-21T05:22:59;7.50;;;6.40;;
791;SDS011;379;49.022;12.148;2022-08-21T05:25:27;6.50;;;4.63;;
791;SDS011;379;49.022;12.148;2022-08-21T05:27:53;5.63;;;5.10;;
791;SDS011;379;49.022;12.148;2022-08-21T05:30:21;5.63;;;4.70;;
791;SDS011;379;49.022;12.148;2022-08-21T05:32:48;7.27;;;5.30;;
791;SDS011;379;49.022;12.148;2022-08-21T05:35:16;4.10;;;3.70;;
791;SDS011;379;49.022;12.148;2022-08-21T05:37:43;6.60;;;4.90;;
791;SDS011;379;49.022;12.148;2022-08-21T05:40:10;9.67;;;5.90;;
791;SDS011;379;49.022;12.148;2022-08-21T05:42:37;7.13;;;4.40;;
791;SDS011;379;49.022;12.148;2022-08-21T05:45:04;8.43;;;5.17;;
791;SDS011;379;49.022;12.148;2022-08-21T05:47:31;8.47;;;6.10;;
791;SDS011;379;49.022;12.148;2022-08-21T05:49:58;6.60;;;4.90;;
791;SDS011;379;49.022;12.148;2022-08-21T05:52:26;9.27;;;7.23;;
791;SDS011;379;49.022;12.148;2022-08-21T05:54:52;10.57;;;7.33;;
791;SDS011;379;49.022;12.148;2022-08-21T05:57:20;7.63;;;5.97;;
791;SDS011;379;49.022;12.148;2022-08-21T05:59:48;7.23;;;5.30;;
791;SDS011;379;49.022;12.148;2022-08-21T06:02:16;6.70;;;5.33;;
791;SDS011;379;49.022;12.148;2022-08-21T06:04:44;8.27;;;5.20;;
791;SDS011;379;49.022;12.148;2022-08-21T06:07:11;8.80;;;6.37;;
791;SDS011;379;49.022;12.148;2022-08-21T06:09:39;11.87;;;7.30;;
791;SDS011;379;49.022;12.148;2022-08-21T06:12:06;9.47;;;6.00;;
791;SDS011;379;49.022;12.148;2022-08-21T06:14:35;8.20;;;6.00;;
791;SDS011;379;49.022;12.148;2022-08-21T06:17:04;7.00;;;5.67;;
791;SDS011;379;49.022;12.148;2022-08-21T06:19:31;8.77;;;6.83;;
791;SDS011;379;49.022;12.148;2022-08-21T06:21:58;7.87;;;5.17;;
791;SDS011;379;49.022;12.148;2022-08-21T06:24:25;8.87;;;6.27;;
791;SDS011;379;49.022;12.148;2022-08-21T06:26:53;8.40;;;5.03;;
791;SDS011;379;49.022;12.148;2022-08-21T06:29:21;8.80;;;5.90;;
791;SDS011;379;49.022;12.148;2022-08-21T06:31:49;9.83;;;6.27;;
791;SDS011;379;49.022;12.148;2022-08-21T06:34:16;10.30;;;6.10;;
791;SDS011;379;49.022;12.148;2022-08-21T06:36:44;10.30;;;6.97;;
791;SDS011;379;49.022;12.148;2022-08-21T06:39:11;7.27;;;5.93;;
791;SDS011;379;49.022;12.148;2022-08-21T06:41:38;7.80;;;5.60;;
791;SDS011;379;49.022;12.148;2022-08-21T06:44:07;7.97;;;6.33;;
791;SDS011;379;49.022;12.148;2022-08-21T06:46:34;7.00;;;5.10;;
791;SDS011;379;49.022;12.148;2022-08-21T06:49:01;7.37;;;5.63;;
791;SDS011;379;49.022;12.148;2022-08-21T06:51:28;6.30;;;5.60;;
791;SDS011;379;49.022;12.148;2022-08-21T06:53:54;11.10;;;6.20;;
791;SDS011;379;49.022;12.148;2022-08-21T06:56:21;6.33;;;4.47;;
791;SDS011;379;49.022;12.148;2022-08-21T06:58:48;7.47;;;6.00;;
791;SDS011;379;49.022;12.148;2022-08-21T07:01:16;8.97;;;4.93;;
791;SDS011;379;49.022;12.148;2022-08-21T07:03:44;10.40;;;5.60;;
791;SDS011;379;49.022;12.148;2022-08-21T07:06:10;6.70;;;5.27;;
791;SDS011;379;49.022;12.148;2022-08-21T07:08:38;6.70;;;5.97;;
791;SDS011;379;49.022;12.148;2022-08-21T07:11:07;8.30;;;6.40;;
791;SDS011;379;49.022;12.148;2022-08-21T07:13:38;10.10;;;6.13;;
791;SDS011;379;49.022;12.148;2022-08-21T07:16:05;10.90;;;6.07;;
791;SDS011;379;49.022;12.148;2022-08-21T07:18:34;10.17;;;7.40;;
791;SDS011;379;49.022;12.148;2022-08-21T07:21:01;7.23;;;6.20;;
791;SDS011;379;49.022;12.148;2022-08-21T07:23:30;10.03;;;5.97;;
791;SDS011;379;49.022;12.148;2022-08-21T07:25:58;7.73;;;6.03;;
791;SDS011;379;49.022;12.148;2022-08-21T07:28:26;9.67;;;6.87;;
791;SDS011;379;49.022;12.148;2022-08-21T07:30:54;8.50;;;6.63;;
791;SDS011;379;49.022;12.148;2022-08-21T07:33:25;7.40;;;4.93;;
791;SDS011;379;49.022;12.148;2022-08-21T07:35:55;8.03;;;6.37;;
791;SDS011;379;49.022;12.148;2022-08-21T07:38:22;9.40;;;6.27;;
791;SDS011;379;49.022;12.148;2022-08-21T07:40:49;7.43;;;5.13;;
791;SDS011;379;49.022;12.148;2022-08-21T07:43:18;7.90;;;6.00;;
791;SDS011;379;49.022;12.148;2022-08-21T07:45:46;6.53;;;5.70;;
791;SDS011;379;49.022;12.148;2022-08-21T07:48:14;9.20;;;6.00;;
791;SDS011;379;49.022;12.148;2022-08-21T07:50:42;8.77;;;6.00;;
791;SDS011;379;49.022;12.148;2022-08-21T07:53:10;8.80;;;5.87;;
791;SDS011;379;49.022;12.148;2022-08-21T07:55:37;8.57;;;6.37;;
791;SDS011;379;49.022;12.148;2022-08-21T07:58:04;7.03;;;5.40;;
791;SDS011;379;49.022;12.148;2022-08-21T08:00:31;8.17;;;5.90;;
791;SDS011;379;49.022;12.148;2022-08-21T08:02:58;7.30;;;5.53;;
791;SDS011;379;49.022;12.148;2022-08-21T08:05:27;7.30;;;6.13;;
791;SDS011;379;49.022;12.148;2022-08-21T08:07:55;13.87;;;8.47;;
791;SDS011;379;49.022;12.148;2022-08-21T08:10:24;7.33;;;6.60;;
791;SDS011;379;49.022;12.148;2022-08-21T08:12:51;8.37;;;6.47;;
791;SDS011;379;49.022;12.148;2022-08-21T08:15:20;9.80;;;6.77;;
791;SDS011;379;49.022;12.148;2022-08-21T08:17:49;7.60;;;6.40;;
791;SDS011;379;49.022;12.148;2022-08-21T08:20:17;10.33;;;6.97;;
791;SDS011;379;49.022;12.148;2022-08-21T08:22:45;7.20;;;5.40;;
791;SDS011;379;49.022;12.148;2022-08-21T08:25:12;8.47;;;6.23;;
791;SDS011;379;49.022;12.148;2022-08-21T08:27:42;7.23;;;5.60;;
791;SDS011;379;49.022;12.148;2022-08-21T08:30:10;10.03;;;7.03;;
791;SDS011;379;49.022;12.148;2022-08-21T08:32:39;6.20;;;5.33;;
791;SDS011;379;49.022;12.148;2022-08-21T08:35:07;8.67;;;6.03;;
791;SDS011;379;49.022;12.148;2022-08-21T08:37:35;9.53;;;5.90;;
791;SDS011;379;49.022;12.148;2022-08-21T08:40:05;9.27;;;5.77;;
791;SDS011;379;49.022;12.148;2022-08-21T08:42:33;11.00;;;5.63;;
791;SDS011;379;49.022;12.148;2022-08-21T08:45:04;9.90;;;7.13;;
791;SDS011;379;49.022;12.148;2022-08-21T08:47:33;6.80;;;5.90;;
791;SDS011;379;49.022;12.148;2022-08-21T08:50:04;10.17;;;6.83;;
791;SDS011;379;49.022;12.148;2022-08-21T08:52:37;7.43;;;6.37;;
791;SDS011;379;49.022;12.148;2022-08-21T08:55:11;9.30;;;7.40;;
791;SDS011;379;49.022;12.148;2022-08-21T08:57:42;6.83;;;6.13;;
791;SDS011;379;49.022;12.148;2022-08-21T09:00:14;9.33;;;6.03;;
791;SDS011;379;49.022;12.148;2022-08-21T09:02:44;7.53;;;5.80;;
791;SDS011;379;49.022;12.148;2022-08-21T09:05:15;6.80;;;5.53;;
791;SDS011;379;49.022;12.148;2022-08-21T09:07:48;8.03;;;6.40;;
791;SDS011;379;49.022;12.148;2022-08-21T09:10:25;8.50;;;5.90;;
791;SDS011;379;49.022;12.148;2022-08-21T09:13:09;8.00;;;7.10;;
791;SDS011;379;49.022;12.148;2022-08-21T09:15:48;7.70;;;5.80;;
791;SDS011;379;49.022;12.148;2022-08-21T09:18:25;8.83;;;5.50;;
791;SDS011;379;49.022;12.148;2022-08-21T09:21:05;7.00;;;6.13;;
791;SDS011;379;49.022;12.148;2022-08-21T09:23:40;7.00;;;5.63;;
791;SDS011;379;49.022;12.148;2022-08-21T09:26:13;7.53;;;6.23;;
791;SDS011;379;49.022;12.148;2022-08-21T09:28:42;6.93;;;6.23;;
791;SDS011;379;49.022;12.148;2022-08-21T09:31:11;6.50;;;5.23;;
791;SDS011;379;49.022;12.148;2022-08-21T09:33:47;7.60;;;6.80;;
791;SDS011;379;49.022;12.148;2022-08-21T09:36:21;7.93;;;5.90;;
791;SDS011;379;49.022;12.148;2022-08-21T09:38:51;7.37;;;5.50;;
791;SDS011;379;49.022;12.148;2022-08-21T09:41:25;8.03;;;5.90;;
791;SDS011;379;49.022;12.148;2022-08-21T09:43:54;8.10;;;5.53;;
791;SDS011;379;49.022;12.148;2022-08-21T09:46:23;8.53;;;6.90;;
791;SDS011;379;49.022;12.148;2022-08-21T09:48:51;8.57;;;6.97;;
791;SDS011;379;49.022;12.148;2022-08-21T09:51:22;10.30;;;7.60;;
791;SDS011;379;49.022;12.148;2022-08-21T09:53:52;7.93;;;6.33;;
791;SDS011;379;49.022;12.148;2022-08-21T09:56:31;9.93;;;7.70;;
791;SDS011;379;49.022;12.148;2022-08-21T09:59:19;7.43;;;5.90;;
791;SDS011;379;49.022;12.148;2022-08-21T10:01:52;8.50;;;7.57;;
791;SDS011;379;49.022;12.148;2022-08-21T10:04:20;8.33;;;7.50;;
791;SDS011;379;49.022;12.148;2022-08-21T10:06:49;8.10;;;7.30;;
791;SDS011;379;49.022;12.148;2022-08-21T10:09:17;9.70;;;7.03;;
791;SDS011;379;49.022;12.148;2022-08-21T10:11:49;8.47;;;7.03;;
791;SDS011;379;49.022;12.148;2022-08-21T10:14:33;7.80;;;6.30;;
791;SDS011;379;49.022;12.148;2022-08-21T10:17:13;9.30;;;6.67;;
791;SDS011;379;49.022;12.148;2022-08-21T10:19:49;8.90;;;7.37;;
791;SDS011;379;49.022;12.148;2022-08-21T10:22:25;9.83;;;7.30;;
791;SDS011;379;49.022;12.148;2022-08-21T10:25:02;7.17;;;6.47;;
791;SDS011;379;49.022;12.148;2022-08-21T10:27:37;9.23;;;7.87;;
791;SDS011;379;49.022;12.148;2022-08-21T10:30:14;10.37;;;7.33;;
791;SDS011;379;49.022;12.148;2022-08-21T10:32:49;8.90;;;7.43;;
791;SDS011;379;49.022;12.148;2022-08-21T10:35:26;11.43;;;7.73;;
791;SDS011;379;49.022;12.148;2022-08-21T10:38:04;8.10;;;6.60;;
791;SDS011;379;49.022;12.148;2022-08-21T10:41:01;7.73;;;6.73;;
791;SDS011;379;49.022;12.148;2022-08-21T10:43:37;9.97;;;8.70;;
791;SDS011;379;49.022;12.148;2022-08-21T10:46:14;8.80;;;7.77;;
791;SDS011;379;49.022;12.148;2022-08-21T10:48:49;11.00;;;8.30;;
791;SDS011;379;49.022;12.148;2022-08-21T10:51:20;8.37;;;7.53;;
791;SDS011;379;49.022;12.148;2022-08-21T10:53:55;10.70;;;7.87;;
791;SDS011;379;49.022;12.148;2022-08-21T10:56:29;9.27;;;7.47;;
791;SDS011;379;49.022;12.148;2022-08-21T10:59:00;8.90;;;7.23;;
791;SDS011;379;49.022;12.148;2022-08-21T11:01:34;9.37;;;7.43;;
791;SDS011;379;49.022;12.148;2022-08-21T11:04:11;9.13;;;8.10;;
791;SDS011;379;49.022;12.148;2022-08-21T11:06:44;8.70;;;7.77;;
791;SDS011;379;49.022;12.148;2022-08-21T11:09:17;9.03;;;8.07;;
791;SDS011;379;49.022;12.148;2022-08-21T11:11:47;9.73;;;7.63;;
791;SDS011;379;49.022;12.148;2022-08-21T11:14:21;9.03;;;7.93;;
791;SDS011;379;49.022;12.148;2022-08-21T11:16:57;8.37;;;7.17;;
791;SDS011;379;49.022;12.148;2022-08-21T11:19:30;9.53;;;7.77;;
791;SDS011;379;49.022;12.148;2022-08-21T11:22:01;8.87;;;7.97;;
791;SDS011;379;49.022;12.148;2022-08-21T11:24:35;8.83;;;7.17;;
791;SDS011;379;49.022;12.148;2022-08-21T11:27:12;8.87;;;7.97;;
791;SDS011;379;49.022;12.148;2022-08-21T11:29:46;8.10;;;6.90;;
791;SDS011;379;49.022;12.148;2022-08-21T11:32:23;8.90;;;7.50;;
791;SDS011;379;49.022;12.148;2022-08-21T11:35:00;8.80;;;7.10;;
791;SDS011;379;49.022;12.148;2022-08-21T11:37:39;9.20;;;7.13;;
791;SDS011;379;49.022;12.148;2022-08-21T11:40:24;8.30;;;7.20;;
791;SDS011;379;49.022;12.148;2022-08-21T11:43:02;7.63;;;6.90;;
791;SDS011;379;49.022;12.148;2022-08-21T11:45:39;10.40;;;8.30;;
791;SDS011;379;49.022;12.148;2022-08-21T11:48:13;7.63;;;6.67;;
791;SDS011;379;49.022;12.148;2022-08-21T11:50:50;9.20;;;7.77;;
791;SDS011;379;49.022;12.148;2022-08-21T11:53:19;12.47;;;8.20;;
791;SDS011;379;49.022;12.148;2022-08-21T11:55:51;9.33;;;7.93;;
791;SDS011;379;49.022;12.148;2022-08-21T11:58:25;10.47;;;7.87;;
791;SDS011;379;49.022;12.148;2022-08-21T12:00:57;8.87;;;7.83;;
791;SDS011;379;49.022;12.148;2022-08-21T12:03:30;9.53;;;8.53;;
791;SDS011;379;49.022;12.148;2022-08-21T12:06:02;10.00;;;7.73;;
791;SDS011;379;49.022;12.148;2022-08-21T12:08:33;10.17;;;8.43;;
791;SDS011;379;49.022;12.148;2022-08-21T12:11:03;9.90;;;7.60;;
791;SDS011;379;49.022;12.148;2022-08-21T12:13:34;11.27;;;8.20;;
791;SDS011;379;49.022;12.148;2022-08-21T12:16:05;7.60;;;6.47;;
791;SDS011;379;49.022;12.148;2022-08-21T12:18:33;10.87;;;7.87;;
791;SDS011;379;49.022;12.148;2022-08-21T12:21:05;8.10;;;7.23;;
791;SDS011;379;49.022;12.148;2022-08-21T12:23:46;6.77;;;6.03;;
791;SDS011;379;49.022;12.148;2022-08-21T12:26:19;6.70;;;5.60;;
791;SDS011;379;49.022;12.148;2022-08-21T12:28:50;8.80;;;7.70;;
791;SDS011;379;49.022;12.148;2022-08-21T12:31:21;8.07;;;6.50;;
791;SDS011;379;49.022;12.148;2022-08-21T12:33:51;7.40;;;6.37;;
791;SDS011;379;49.022;12.148;2022-08-21T12:36:24;7.00;;;6.30;;
791;SDS011;379;49.022;12.148;2022-08-21T12:38:57;7.23;;;5.67;;
791;SDS011;379;49.022;12.148;2022-08-21T12:41:32;4.60;;;4.10;;
791;SDS011;379;49.022;12.148;2022-08-21T12:44:01;7.20;;;6.27;;
791;SDS011;379;49.022;12.148;2022-08-21T12:46:34;4.20;;;3.80;;
791;SDS011;379;49.022;12.148;2022-08-21T12:49:03;5.73;;;3.70;;
791;SDS011;379;49.022;12.148;2022-08-21T12:51:42;5.93;;;4.53;;
791;SDS011;379;49.022;12.148;2022-08-21T12:54:21;4.37;;;3.80;;
791;SDS011;379;49.022;12.148;2022-08-21T12:56:55;5.93;;;5.30;;
791;SDS011;379;49.022;12.148;2022-08-21T12:59:23;5.87;;;4.97;;
791;SDS011;379;49.022;12.148;2022-08-21T13:01:50;4.13;;;3.40;;
791;SDS011;379;49.022;12.148;2022-08-21T13:04:21;4.40;;;3.87;;
791;SDS011;379;49.022;12.148;2022-08-21T13:06:54;3.33;;;3.03;;
791;SDS011;379;49.022;12.148;2022-08-21T13:09:25;3.60;;;3.30;;
791;SDS011;379;49.022;12.148;2022-08-21T13:11:54;4.23;;;3.30;;
791;SDS011;379;49.022;12.148;2022-08-21T13:14:23;3.53;;;3.23;;
791;SDS011;379;49.022;12.148;2022-08-21T13:16:54;3.20;;;2.83;;
791;SDS011;379;49.022;12.148;2022-08-21T13:19:21;3.73;;;2.40;;
791;SDS011;379;49.022;12.148;2022-08-21T13:21:49;3.20;;;2.70;;
791;SDS011;379;49.022;12.148;2022-08-21T13:24:19;2.10;;;1.90;;
791;SDS011;379;49.022;12.148;2022-08-21T13:26:47;2.40;;;2.20;;
791;SDS011;379;49.022;12.148;2022-08-21T13:29:15;4.20;;;2.77;;
791;SDS011;379;49.022;12.148;2022-08-21T13:31:46;3.00;;;2.47;;
791;SDS011;379;49.022;12.148;2022-08-21T13:34:16;2.73;;;2.50;;
791;SDS011;379;49.022;12.148;2022-08-21T13:36:44;2.83;;;2.50;;
791;SDS011;379;49.022;12.148;2022-08-21T13:39:12;2.83;;;2.53;;
791;SDS011;379;49.022;12.148;2022-08-21T13:41:45;2.10;;;2.00;;
791;SDS011;379;49.022;12.148;2022-08-21T13:44:17;2.37;;;2.17;;
791;SDS011;379;49.022;12.148;2022-08-21T13:46:46;2.70;;;2.10;;
791;SDS011;379;49.022;12.148;2022-08-21T13:49:16;1.73;;;1.63;;
791;SDS011;379;49.022;12.148;2022-08-21T13:51:45;3.20;;;2.53;;
791;SDS011;379;49.022;12.148;2022-08-21T13:54:13;2.03;;;1.83;;
791;SDS011;379;49.022;12.148;2022-08-21T13:56:47;2.50;;;2.30;;
791;SDS011;379;49.022;12.148;2022-08-21T13:59:23;4.53;;;2.17;;
791;SDS011;379;49.022;12.148;2022-08-21T14:01:52;3.17;;;2.20;;
791;SDS011;379;49.022;12.148;2022-08-21T14:04:25;2.47;;;2.27;;
791;SDS011;379;49.022;12.148;2022-08-21T14:07:01;2.53;;;2.33;;
791;SDS011;379;49.022;12.148;2022-08-21T14:09:30;2.30;;;2.10;;
791;SDS011;379;49.022;12.148;2022-08-21T14:12:01;3.10;;;2.10;;
791;SDS011;379;49.022;12.148;2022-08-21T14:14:37;2.63;;;2.10;;
791;SDS011;379;49.022;12.148;2022-08-21T14:17:06;3.10;;;2.80;;
791;SDS011;379;49.022;12.148;2022-08-21T14:19:37;2.43;;;1.93;;
791;SDS011;379;49.022;12.148;2022-08-21T14:22:27;2.53;;;2.33;;
791;SDS011;379;49.022;12.148;2022-08-21T14:25:01;3.43;;;2.60;;
791;SDS011;379;49.022;12.148;2022-08-21T14:27:32;3.40;;;2.17;;
791;SDS011;379;49.022;12.148;2022-08-21T14:30:00;2.30;;;2.10;;
791;SDS011;379;49.022;12.148;2022-08-21T14:32:35;2.97;;;2.50;;
791;SDS011;379;49.022;12.148;2022-08-21T14:35:04;3.00;;;2.50;;
791;SDS011;379;49.022;12.148;2022-08-21T14:37:32;2.70;;;2.50;;
791;SDS011;379;49.022;12.148;2022-08-21T14:39:59;2.73;;;2.53;;
791;SDS011;379;49.022;12.148;2022-08-21T14:42:26;3.73;;;2.20;;
791;SDS011;379;49.022;12.148;2022-08-21T14:44:59;2.50;;;2.30;;
791;SDS011;379;49.022;12.148;2022-08-21T14:47:31;2.33;;;1.87;;
791;SDS011;379;49.022;12.148;2022-08-21T14:49:58;2.57;;;2.37;;
791;SDS011;379;49.022;12.148;2022-08-21T14:52:24;3.13;;;2.83;;
791;SDS011;379;49.022;12.148;2022-08-21T14:54:51;2.37;;;2.20;;
791;SDS011;379;49.022;12.148;2022-08-21T14:57:18;2.37;;;2.17;;
791;SDS011;379;49.022;12.148;2022-08-21T14:59:44;2.30;;;2.10;;
791;SDS011;379;49.022;12.148;2022-08-21T15:02:13;2.50;;;2.30;;
791;SDS011;379;49.022;12.148;2022-08-21T15:04:40;2.43;;;2.23;;
791;SDS011;379;49.022;12.148;2022-08-21T15:07:07;3.10;;;2.80;;
791;SDS011;379;49.022;12.148;2022-08-21T15:09:34;2.10;;;1.90;;
791;SDS011;379;49.022;12.148;2022-08-21T15:12:01;3.10;;;1.60;;
791;SDS011;379;49.022;12.148;2022-08-21T15:14:30;2.70;;;1.97;;
791;SDS011;379;49.022;12.148;2022-08-21T15:17:03;2.27;;;2.00;;
791;SDS011;379;49.022;12.148;2022-08-21T15:19:33;1.80;;;1.67;;
791;SDS011;379;49.022;12.148;2022-08-21T15:22:00;2.17;;;1.97;;
791;SDS011;379;49.022;12.148;2022-08-21T15:24:29;4.10;;;2.03;;
791;SDS011;379;49.022;12.148;2022-08-21T15:26:56;3.67;;;2.47;;
791;SDS011;379;49.022;12.148;2022-08-21T15:29:26;2.53;;;2.27;;
791;SDS011;379;49.022;12.148;2022-08-21T15:31:53;2.20;;;1.93;;
791;SDS011;379;49.022;12.148;2022-08-21T15:34:22;2.10;;;1.63;;